createdAt,value
2022-10-22T06:26:18.032Z,7.70
2022-10-22T08:08:00.787Z,7.55
2022-10-22T08:10:27.229Z,4.85
2022-10-22T10:16:56.514Z,5.45
2022-10-22T12:04:53.058Z,4.50
2022-10-22T12:27:03.836Z,3.63
2022-10-22T12:48:26.690Z,7.65
2022-10-22T12:50:55.709Z,5.43
2022-10-22T12:54:07.582Z,8.52
2022-10-22T12:56:35.602Z,3.88
2022-10-22T12:59:03.822Z,7.83
2022-10-22T13:06:15.017Z,4.65
2022-10-22T13:13:31.718Z,4.00
2022-10-22T13:28:08.505Z,5.32
2022-10-22T13:34:25.248Z,5.23
2022-10-22T13:48:46.620Z,5.28
2022-10-22T14:11:14.420Z,5.73
2022-10-22T14:18:08.013Z,7.28
2022-10-22T14:24:32.927Z,7.88
2022-10-22T14:31:43.113Z,5.25
2022-10-22T14:39:06.595Z,6.20
2022-10-22T14:49:35.866Z,6.03
2022-10-22T15:03:38.904Z,5.07
2022-10-22T15:15:30.481Z,5.10
2022-10-22T15:22:02.511Z,7.93
2022-10-22T15:40:03.808Z,6.30
2022-10-22T15:42:30.267Z,9.02
2022-10-22T15:44:59.853Z,3.45
2022-10-22T15:47:29.417Z,4.25
2022-10-22T15:49:55.969Z,6.78
2022-10-22T15:52:22.578Z,8.23
2022-10-22T15:54:49.034Z,6.18
2022-10-22T15:57:15.491Z,9.98
2022-10-22T15:59:41.929Z,3.33
2022-10-22T16:02:10.595Z,7.65
2022-10-22T16:04:38.223Z,7.10
2022-10-22T16:07:04.852Z,8.57
2022-10-22T16:10:04.123Z,6.35
2022-10-22T16:12:30.583Z,7.15
2022-10-22T16:14:57.094Z,6.60
2022-10-22T16:45:12.364Z,4.85
2022-10-22T18:41:33.370Z,12.73
2022-10-22T18:44:02.203Z,9.90
2022-10-22T18:46:30.874Z,8.00
2022-10-22T18:49:02.428Z,6.65
2022-10-22T18:51:34.501Z,4.82
2022-10-22T18:54:21.720Z,2.90
2022-10-22T18:56:48.924Z,4.53
2022-10-22T18:59:28.528Z,4.18
2022-10-22T19:01:57.651Z,4.88
2022-10-22T19:04:24.133Z,11.75
2022-10-22T19:06:50.751Z,8.15
2022-10-22T19:09:17.521Z,4.47
2022-10-22T19:11:45.548Z,2.47
2022-10-22T19:14:38.723Z,4.60
2022-10-22T19:17:05.202Z,2.30
2022-10-22T19:19:31.646Z,2.08
2022-10-22T19:21:59.493Z,3.10
2022-10-22T19:24:26.638Z,2.90
2022-10-22T19:26:53.607Z,5.30
2022-10-22T19:42:01.673Z,8.25
2022-10-22T19:44:28.158Z,8.63
2022-10-22T19:46:54.562Z,9.98
2022-10-22T19:53:15.913Z,4.60
2022-10-22T19:55:44.381Z,4.25
2022-10-22T19:58:12.035Z,3.55
2022-10-22T20:00:38.744Z,9.52
2022-10-22T20:03:05.573Z,4.65
2022-10-22T20:05:32.064Z,7.30
2022-10-22T20:07:59.048Z,7.03
2022-10-22T20:10:25.557Z,5.00
2022-10-22T20:13:24.884Z,9.02
2022-10-22T20:23:42.048Z,5.22
2022-10-22T20:26:09.933Z,8.45
2022-10-22T20:28:37.965Z,10.52
2022-10-22T20:31:13.451Z,9.40
2022-10-22T20:33:39.938Z,6.40
2022-10-22T20:36:14.057Z,5.80
2022-10-22T20:38:40.476Z,7.15
2022-10-22T20:41:16.699Z,10.40
2022-10-22T20:43:45.439Z,8.50
2022-10-22T20:46:24.738Z,5.67
2022-10-22T20:48:53.685Z,10.85
2022-10-22T20:51:20.170Z,10.10
2022-10-22T20:53:46.786Z,9.70
2022-10-22T20:56:14.161Z,10.48
2022-10-22T20:58:46.140Z,10.40
2022-10-22T21:01:18.541Z,12.30
2022-10-22T21:03:45.926Z,15.13
2022-10-22T21:06:12.552Z,17.08
2022-10-22T21:08:39.080Z,14.60
2022-10-22T21:11:05.646Z,13.37
2022-10-22T21:13:33.208Z,11.52
2022-10-22T21:16:09.054Z,9.85
2022-10-22T21:19:12.864Z,15.25
2022-10-22T21:21:39.339Z,14.25
2022-10-22T21:24:05.919Z,9.67
2022-10-22T21:26:54.913Z,10.55
2022-10-22T21:29:21.435Z,9.32
2022-10-22T21:31:48.105Z,7.85
2022-10-22T21:34:17.820Z,6.70
2022-10-22T21:37:03.240Z,4.93
2022-10-22T21:39:30.526Z,7.85
2022-10-22T21:41:56.963Z,8.43
2022-10-22T21:44:23.451Z,7.38
2022-10-22T21:46:49.942Z,10.40
2022-10-22T21:49:16.377Z,6.43
2022-10-22T21:52:18.760Z,5.63
2022-10-22T21:55:55.089Z,5.97
2022-10-22T21:58:21.503Z,9.60
2022-10-22T22:00:54.467Z,9.25
2022-10-22T22:03:21.402Z,6.40
2022-10-22T22:05:48.012Z,12.27
2022-10-22T22:08:15.471Z,8.77
2022-10-22T22:10:43.071Z,9.52
2022-10-22T22:13:09.500Z,13.98
2022-10-22T22:15:35.915Z,10.23
2022-10-22T22:18:02.331Z,8.55
2022-10-22T22:20:28.988Z,8.38
2022-10-22T22:22:55.418Z,6.18
2022-10-22T22:25:22.084Z,7.75
2022-10-22T22:27:48.488Z,6.50
2022-10-22T22:30:15.398Z,7.43
2022-10-22T22:32:42.515Z,8.35
2022-10-22T22:35:09.071Z,11.93
2022-10-22T22:37:35.669Z,9.80
2022-10-22T22:40:02.408Z,11.00
2022-10-22T22:42:28.890Z,12.40
2022-10-22T22:46:13.788Z,11.90
2022-10-22T22:48:40.702Z,9.60
2022-10-22T22:51:07.648Z,8.73
2022-10-22T22:53:35.458Z,11.73
2022-10-22T23:04:00.525Z,11.02
2022-10-22T23:06:29.717Z,8.40
2022-10-22T23:08:57.116Z,6.47
2022-10-22T23:11:25.693Z,9.60
2022-10-22T23:13:54.610Z,9.65
2022-10-22T23:16:22.823Z,11.55
2022-10-22T23:18:49.747Z,9.70
2022-10-22T23:21:18.582Z,9.87
2022-10-22T23:23:47.224Z,13.15
2022-10-22T23:26:15.206Z,9.60
2022-10-22T23:28:41.647Z,13.50
2022-10-22T23:31:10.544Z,13.85
2022-10-22T23:33:37.064Z,12.50
2022-10-22T23:36:06.876Z,12.45
2022-10-22T23:38:34.761Z,11.45
2022-10-22T23:41:01.259Z,11.13
2022-10-22T23:43:28.826Z,12.82
2022-10-22T23:45:55.867Z,9.30
2022-10-22T23:48:23.031Z,8.95
2022-10-22T23:50:49.497Z,10.40
2022-10-22T23:53:15.981Z,13.73
2022-10-22T23:55:43.990Z,10.52
2022-10-22T23:58:11.408Z,15.27
